createdAt,value
2023-03-19T00:04:11.325Z,51.71
2023-03-19T00:09:13.687Z,51.50
2023-03-19T00:14:14.446Z,51.44
2023-03-19T00:19:15.707Z,51.25
2023-03-19T00:24:17.780Z,51.66
2023-03-19T00:29:18.586Z,51.31
2023-03-19T00:34:21.648Z,51.28
2023-03-19T00:39:24.453Z,51.80
2023-03-19T00:44:25.507Z,51.68
2023-03-19T00:49:26.270Z,52.07
2023-03-19T00:54:28.480Z,52.20
2023-03-19T00:59:31.281Z,52.06
2023-03-19T01:04:32.002Z,52.28
2023-03-19T01:09:35.947Z,52.91
2023-03-19T01:14:36.671Z,52.21
2023-03-19T01:19:37.582Z,52.71
2023-03-19T01:24:39.666Z,52.72
2023-03-19T01:29:40.619Z,53.20
2023-03-19T01:34:58.362Z,53.77
2023-03-19T01:40:00.508Z,53.23
2023-03-19T01:45:03.521Z,53.45
2023-03-19T01:50:25.906Z,52.88
2023-03-19T01:55:43.159Z,52.67
2023-03-19T02:00:56.081Z,52.87
2023-03-19T02:05:58.659Z,52.98
2023-03-19T02:11:02.110Z,52.09
2023-03-19T02:16:04.674Z,52.42
2023-03-19T02:21:09.182Z,52.58
2023-03-19T02:26:13.680Z,52.26
2023-03-19T02:31:16.139Z,52.01
2023-03-19T02:36:20.462Z,51.85
2023-03-19T02:41:22.825Z,51.63
2023-03-19T02:46:23.665Z,51.25
2023-03-19T02:51:24.394Z,51.84
2023-03-19T02:56:26.622Z,51.19
2023-03-19T03:01:27.299Z,51.14
2023-03-19T03:06:28.124Z,51.32
2023-03-19T03:11:30.425Z,50.81
2023-03-19T03:16:31.263Z,51.29
2023-03-19T03:21:34.349Z,51.17
2023-03-19T03:26:38.864Z,51.73
2023-03-19T03:31:39.641Z,51.70
2023-03-19T03:36:40.421Z,52.55
2023-03-19T03:41:42.570Z,51.99
2023-03-19T03:46:44.569Z,51.81
2023-03-19T03:51:45.603Z,52.13
2023-03-19T03:56:47.778Z,52.72
2023-03-19T04:01:48.617Z,52.63
2023-03-19T04:06:49.578Z,52.64
2023-03-19T04:12:02.283Z,52.02
2023-03-19T04:17:03.070Z,53.38
2023-03-19T04:22:04.426Z,52.68
2023-03-19T04:27:08.431Z,53.09
2023-03-19T04:32:10.874Z,53.05
2023-03-19T04:37:12.523Z,52.67
2023-03-19T04:42:21.680Z,52.46
2023-03-19T04:47:28.634Z,52.39
2023-03-19T04:52:33.901Z,52.55
2023-03-19T04:57:37.991Z,52.61
2023-03-19T05:02:38.784Z,51.71
2023-03-19T05:07:39.479Z,52.18
2023-03-19T05:12:42.229Z,52.18
2023-03-19T05:17:44.142Z,53.38
2023-03-19T05:22:49.389Z,52.34
2023-03-19T05:27:53.102Z,53.48
2023-03-19T05:32:57.715Z,54.02
2023-03-19T05:38:08.284Z,52.98
2023-03-19T05:43:12.549Z,53.65
2023-03-19T05:48:13.824Z,52.65
2023-03-19T05:53:18.448Z,52.59
2023-03-19T05:58:32.240Z,52.72
2023-03-19T06:03:33.759Z,51.70
2023-03-19T06:08:39.475Z,51.26
2023-03-19T06:14:16.582Z,51.16
2023-03-19T06:19:27.899Z,50.88
2023-03-19T06:24:30.500Z,50.46
2023-03-19T06:29:32.686Z,50.37
2023-03-19T06:34:45.255Z,49.79
2023-03-19T06:39:46.314Z,49.85
2023-03-19T06:44:48.411Z,49.15
2023-03-19T06:49:49.118Z,49.15
2023-03-19T06:54:49.829Z,48.40
2023-03-19T06:59:51.883Z,48.14
2023-03-19T07:04:53.466Z,47.56
2023-03-19T07:09:54.362Z,46.91
2023-03-19T07:14:57.080Z,46.90
2023-03-19T07:19:57.766Z,45.61
2023-03-19T07:24:58.597Z,46.13
2023-03-19T07:30:00.758Z,45.57
2023-03-19T07:35:01.517Z,44.51
2023-03-19T07:40:02.423Z,44.24
2023-03-19T07:45:05.352Z,44.10
2023-03-19T07:50:07.323Z,44.16
2023-03-19T07:55:09.897Z,43.72
2023-03-19T08:00:13.072Z,42.79
2023-03-19T08:05:22.379Z,45.34
2023-03-19T08:10:23.100Z,43.34
2023-03-19T08:15:23.828Z,40.79
2023-03-19T08:20:25.903Z,41.26
2023-03-19T08:25:27.037Z,40.85
2023-03-19T08:30:27.813Z,39.59
2023-03-19T08:35:30.445Z,41.28
2023-03-19T08:40:31.285Z,41.26
2023-03-19T08:45:32.056Z,41.34
2023-03-19T08:50:34.390Z,40.15
2023-03-19T08:55:35.279Z,39.78
2023-03-19T09:00:37.080Z,39.82
2023-03-19T09:05:39.182Z,40.14
2023-03-19T09:10:40.631Z,39.93
2023-03-19T09:15:41.385Z,38.47
2023-03-19T09:20:43.584Z,38.53
2023-03-19T09:25:44.333Z,38.26
2023-03-19T09:30:47.012Z,38.16
2023-03-19T09:35:52.830Z,38.55
2023-03-19T09:41:07.912Z,39.24
2023-03-19T09:46:15.559Z,38.42
2023-03-19T09:51:21.162Z,38.74
2023-03-19T09:56:21.904Z,38.79
2023-03-19T10:01:27.569Z,38.79
2023-03-19T10:06:33.647Z,37.67
2023-03-19T10:11:44.529Z,38.15
2023-03-19T10:16:49.319Z,36.55
2023-03-19T10:21:57.352Z,36.84
2023-03-19T10:27:01.550Z,35.56
2023-03-19T10:32:12.085Z,35.83
2023-03-19T10:37:20.573Z,35.47
2023-03-19T10:42:40.889Z,35.66
2023-03-19T10:47:44.244Z,35.76
2023-03-19T10:52:51.606Z,35.30
2023-03-19T10:57:57.955Z,35.35
2023-03-19T11:02:59.248Z,35.69
2023-03-19T11:08:03.616Z,36.23
2023-03-19T11:13:06.942Z,35.87
2023-03-19T11:18:16.128Z,36.41
2023-03-19T11:23:18.860Z,36.79
2023-03-19T11:28:23.088Z,36.36
2023-03-19T11:33:43.684Z,35.72
2023-03-19T11:39:03.338Z,35.35
2023-03-19T11:44:08.274Z,34.96
2023-03-19T11:49:35.672Z,34.31
2023-03-19T11:54:48.786Z,33.95
2023-03-19T12:00:01.495Z,33.04
2023-03-19T12:05:15.967Z,38.62
2023-03-19T12:10:30.364Z,35.09
2023-03-19T12:15:39.507Z,34.92
2023-03-19T12:20:54.047Z,35.53
2023-03-19T12:26:06.101Z,36.10
2023-03-19T12:31:33.788Z,35.78
2023-03-19T12:36:40.852Z,37.19
2023-03-19T12:41:46.145Z,36.62
2023-03-19T12:46:54.162Z,37.92
2023-03-19T12:51:58.431Z,38.64
2023-03-19T12:57:04.549Z,36.51
2023-03-19T13:02:17.176Z,38.28
2023-03-19T13:07:23.616Z,37.73
2023-03-19T13:12:28.778Z,34.55
2023-03-19T13:17:38.327Z,35.85
2023-03-19T13:22:40.340Z,37.90
2023-03-19T13:27:42.405Z,34.74
2023-03-19T13:32:48.788Z,36.25
2023-03-19T13:37:58.951Z,35.20
2023-03-19T13:43:01.036Z,34.48
2023-03-19T13:48:25.664Z,33.88
2023-03-19T13:53:40.603Z,33.89
2023-03-19T13:58:52.958Z,35.14
2023-03-19T14:03:56.392Z,34.76
2023-03-19T14:08:57.246Z,35.44
2023-03-19T14:14:04.079Z,34.91
2023-03-19T14:19:12.528Z,36.19
2023-03-19T14:25:03.946Z,35.61
2023-03-19T14:30:00.688Z,36.38
2023-03-19T14:35:05.795Z,36.86
2023-03-19T14:40:13.028Z,36.12
2023-03-19T14:45:45.986Z,37.01
2023-03-19T14:51:18.984Z,37.29
2023-03-19T14:56:22.395Z,37.59
2023-03-19T15:01:27.125Z,37.44
2023-03-19T15:06:34.287Z,38.41
2023-03-19T15:12:21.255Z,38.20
2023-03-19T15:17:27.013Z,38.39
2023-03-19T15:22:31.349Z,38.67
2023-03-19T15:27:32.137Z,38.73
2023-03-19T15:32:52.234Z,39.21
2023-03-19T15:38:00.803Z,39.16
2023-03-19T15:43:03.626Z,39.35
2023-03-19T15:48:10.653Z,39.66
2023-03-19T15:53:16.643Z,40.28
2023-03-19T15:58:22.379Z,47.67
2023-03-19T16:03:38.939Z,53.63
2023-03-19T16:08:48.000Z,55.28
2023-03-19T16:13:58.040Z,56.22
2023-03-19T16:19:00.885Z,57.11
2023-03-19T16:24:04.521Z,57.47
2023-03-19T16:29:17.921Z,57.94
2023-03-19T16:34:38.278Z,58.96
2023-03-19T16:39:55.214Z,61.12
2023-03-19T16:44:56.396Z,61.75
2023-03-19T16:49:58.400Z,62.55
2023-03-19T16:55:00.148Z,63.31
2023-03-19T17:00:00.961Z,63.70
2023-03-19T17:05:03.422Z,64.72
2023-03-19T17:10:04.626Z,66.62
2023-03-19T17:15:06.989Z,67.25
2023-03-19T17:20:15.390Z,69.20
2023-03-19T17:25:19.168Z,69.08
2023-03-19T17:30:20.217Z,69.42
2023-03-19T17:35:23.537Z,69.63
2023-03-19T17:40:27.467Z,68.84
2023-03-19T17:45:30.185Z,68.37
2023-03-19T17:50:33.533Z,68.64
2023-03-19T17:55:34.401Z,68.31
2023-03-19T18:00:35.426Z,69.29
2023-03-19T18:05:37.734Z,70.42
2023-03-19T18:10:38.454Z,70.73
2023-03-19T18:15:41.088Z,70.88
2023-03-19T18:20:43.375Z,72.97
2023-03-19T18:25:44.968Z,74.99
2023-03-19T18:30:46.343Z,77.72
2023-03-19T18:35:48.887Z,79.29
2023-03-19T18:40:50.380Z,80.18
2023-03-19T18:45:54.693Z,81.60
2023-03-19T18:50:57.174Z,80.86
2023-03-19T18:55:58.368Z,81.48
2023-03-19T19:01:01.452Z,81.61
2023-03-19T19:06:03.947Z,82.35
2023-03-19T19:11:07.363Z,82.99
2023-03-19T19:16:11.523Z,83.15
2023-03-19T19:21:13.973Z,84.59
2023-03-19T19:26:21.874Z,85.18
2023-03-19T19:31:25.672Z,85.09
2023-03-19T19:36:28.844Z,84.92
2023-03-19T19:41:29.650Z,85.22
2023-03-19T19:46:32.553Z,85.61
2023-03-19T19:51:34.604Z,85.46
2023-03-19T19:56:35.490Z,85.19
2023-03-19T20:01:40.511Z,85.68
2023-03-19T20:06:42.727Z,85.06
2023-03-19T20:11:43.690Z,83.73
2023-03-19T20:16:44.432Z,83.51
2023-03-19T20:21:46.550Z,83.58
2023-03-19T20:26:47.308Z,84.18
2023-03-19T20:31:48.050Z,84.43
2023-03-19T20:36:50.227Z,84.89
2023-03-19T20:41:51.717Z,85.27
2023-03-19T20:46:52.600Z,85.69
2023-03-19T20:51:54.758Z,86.01
2023-03-19T20:56:56.122Z,86.64
2023-03-19T21:01:57.309Z,86.53
2023-03-19T21:06:59.413Z,86.65
2023-03-19T21:12:00.537Z,87.35
2023-03-19T21:17:01.250Z,86.88
2023-03-19T21:22:03.439Z,87.22
2023-03-19T21:27:04.245Z,86.60
2023-03-19T21:32:11.110Z,86.19
2023-03-19T21:37:13.462Z,86.66
2023-03-19T21:42:18.013Z,87.27
2023-03-19T21:47:21.398Z,87.57
2023-03-19T21:52:23.601Z,87.41
2023-03-19T21:57:24.607Z,87.74
2023-03-19T22:02:47.332Z,87.09
2023-03-19T22:07:49.739Z,87.10
2023-03-19T22:12:51.204Z,87.39
2023-03-19T22:17:52.019Z,87.07
2023-03-19T22:22:55.438Z,86.79
2023-03-19T22:27:56.858Z,86.67
2023-03-19T22:32:59.179Z,86.11
2023-03-19T22:38:01.299Z,85.57
2023-03-19T22:43:02.205Z,85.25
2023-03-19T22:48:03.664Z,84.93
2023-03-19T22:53:20.782Z,83.93
2023-03-19T22:58:21.535Z,83.12
2023-03-19T23:03:25.776Z,82.93
2023-03-19T23:08:28.261Z,82.06
2023-03-19T23:13:28.885Z,81.55
2023-03-19T23:18:31.433Z,80.76
2023-03-19T23:23:33.634Z,80.46
2023-03-19T23:28:35.992Z,80.72
2023-03-19T23:33:37.284Z,79.81
2023-03-19T23:38:39.290Z,80.04
2023-03-19T23:43:41.067Z,79.84
2023-03-19T23:48:42.156Z,79.44
2023-03-19T23:53:44.902Z,78.81
2023-03-19T23:58:47.110Z,79.14
